Time;durP1;ratioP1;P1;durP2;ratioP2;P2;SDS_P1;SDS_P2;PMS_P1;PMS_P2;Temp;Humidity;BMP_temperature;BMP_pressure;BME280_temperature;BME280_humidity;BME280_pressure;Samples;Min_cycle;Max_cycle;Signal;HPM_P1;HPM_P2
2023/12/14 00:01:57;;;;;;;21.88;12.05;;;6.90;99.90;;;;;;4994434;28;20057;-77
2023/12/14 00:04:23;;;;;;;21.77;12.57;;;6.90;99.90;;;;;;4990736;28;20069;-76
2023/12/14 00:06:48;;;;;;;21.67;11.85;;;6.90;99.90;;;;;;4991481;28;20367;-77
2023/12/14 00:09:14;;;;;;;23.23;12.48;;;6.90;99.90;;;;;;4994081;28;20101;-77
2023/12/14 00:11:39;;;;;;;20.10;12.07;;;6.90;99.90;;;;;;4993315;28;20026;-77
2023/12/14 00:14:05;;;;;;;22.67;12.32;;;6.90;99.90;;;;;;4993673;28;20038;-77
2023/12/14 00:16:31;;;;;;;22.77;12.60;;;6.90;99.90;;;;;;4993138;28;20037;-77
2023/12/14 00:18:56;;;;;;;26.08;13.27;;;6.90;99.90;;;;;;4992940;28;20484;-77
2023/12/14 00:21:22;;;;;;;23.40;13.15;;;6.90;99.90;;;;;;4991938;28;20046;-77
2023/12/14 00:23:48;;;;;;;22.70;12.90;;;6.90;99.90;;;;;;4993676;28;20467;-77
2023/12/14 00:26:14;;;;;;;27.85;13.25;;;6.90;99.90;;;;;;4991725;28;20041;-77
2023/12/14 00:28:39;;;;;;;24.13;13.35;;;7.00;99.90;;;;;;4993118;28;20030;-77
2023/12/14 00:31:05;;;;;;;24.30;13.25;;;7.00;99.90;;;;;;4991900;28;20023;-76
2023/12/14 00:33:30;;;;;;;25.27;12.98;;;7.00;99.90;;;;;;4993490;28;20037;-77
2023/12/14 00:35:56;;;;;;;23.60;13.25;;;7.00;99.90;;;;;;4991981;28;20030;-77
2023/12/14 00:38:22;;;;;;;23.55;12.48;;;7.00;99.90;;;;;;4992063;28;20034;-77
2023/12/14 00:40:47;;;;;;;22.80;11.38;;;7.00;99.90;;;;;;4991294;28;20038;-77
2023/12/14 00:43:13;;;;;;;22.83;12.10;;;6.90;99.90;;;;;;4993159;28;20042;-77
2023/12/14 00:45:41;;;;;;;23.05;12.55;;;6.90;99.90;;;;;;4992717;28;20106;-77
2023/12/14 00:48:06;;;;;;;24.40;12.23;;;6.90;99.90;;;;;;4993514;28;20029;-77
2023/12/14 00:50:32;;;;;;;23.30;12.57;;;6.90;99.90;;;;;;4992869;28;20042;-77
2023/12/14 00:52:57;;;;;;;23.25;12.07;;;6.90;99.90;;;;;;4993370;28;20058;-77
2023/12/14 00:55:23;;;;;;;24.52;12.43;;;6.90;99.90;;;;;;4991695;28;20101;-76
2023/12/14 00:57:48;;;;;;;22.98;11.95;;;6.90;99.90;;;;;;4993434;28;20035;-77
2023/12/14 01:00:14;;;;;;;23.08;12.45;;;6.90;99.90;;;;;;4993110;28;20034;-77
2023/12/14 01:02:40;;;;;;;23.55;12.48;;;6.90;99.90;;;;;;4991582;28;20062;-77
2023/12/14 01:05:06;;;;;;;21.17;12.20;;;6.90;99.90;;;;;;4993375;28;20026;-77
2023/12/14 01:07:31;;;;;;;23.33;12.18;;;6.90;99.90;;;;;;4990700;28;20085;-77
2023/12/14 01:09:57;;;;;;;21.52;11.40;;;6.90;99.90;;;;;;4975593;28;20394;-76
2023/12/14 01:12:23;;;;;;;24.55;12.15;;;6.90;99.90;;;;;;4989878;28;20030;-78
2023/12/14 01:14:48;;;;;;;22.08;12.70;;;6.90;99.90;;;;;;4993265;28;20031;-77
2023/12/14 01:17:14;;;;;;;25.13;12.32;;;6.90;99.90;;;;;;4992762;28;20038;-77
2023/12/14 01:19:41;;;;;;;20.13;11.18;;;6.90;99.90;;;;;;4993057;28;20030;-77
2023/12/14 01:22:06;;;;;;;21.95;11.93;;;6.90;99.90;;;;;;4992834;28;20502;-77
2023/12/14 01:24:32;;;;;;;21.13;10.88;;;6.90;99.90;;;;;;4992132;28;20049;-76
2023/12/14 01:26:57;;;;;;;21.60;10.55;;;6.90;99.90;;;;;;4993050;28;20062;-77
2023/12/14 01:29:23;;;;;;;25.48;10.98;;;6.90;99.90;;;;;;4991723;28;20085;-77
2023/12/14 01:31:48;;;;;;;23.55;12.23;;;6.90;99.90;;;;;;4990701;28;20084;-77
2023/12/14 01:34:15;;;;;;;20.42;11.18;;;6.90;99.90;;;;;;4993182;28;20438;-77
2023/12/14 01:36:41;;;;;;;23.67;12.25;;;6.90;99.90;;;;;;4991817;28;20026;-77
2023/12/14 01:39:07;;;;;;;23.30;11.52;;;6.90;99.90;;;;;;4992815;28;20080;-77
2023/12/14 01:41:32;;;;;;;25.65;12.23;;;6.90;99.90;;;;;;4990774;28;20038;-77
2023/12/14 01:43:58;;;;;;;49.03;32.03;;;6.90;99.90;;;;;;4992853;28;20042;-77
2023/12/14 01:46:24;;;;;;;24.77;11.85;;;6.90;99.90;;;;;;4992013;28;20066;-77
2023/12/14 01:48:50;;;;;;;19.77;10.82;;;6.90;99.90;;;;;;4995053;28;20026;-77
2023/12/14 01:51:15;;;;;;;20.92;10.82;;;6.90;99.90;;;;;;4995772;28;20478;-77
2023/12/14 01:53:41;;;;;;;24.63;10.30;;;6.90;99.90;;;;;;4978798;28;20042;-77
2023/12/14 01:56:07;;;;;;;21.45;9.55;;;6.90;99.90;;;;;;4994797;28;20026;-77
2023/12/14 01:58:33;;;;;;;22.90;9.93;;;6.90;99.90;;;;;;4995926;28;20053;-77
2023/12/14 02:01:34;;;;;;;21.38;9.77;;;6.80;99.90;;;;;;4996259;28;20390;-77
2023/12/14 02:04:00;;;;;;;20.40;9.23;;;6.80;99.90;;;;;;4973332;28;20054;-77
2023/12/14 02:06:26;;;;;;;20.92;10.13;;;6.80;99.90;;;;;;4996004;28;20485;-77
2023/12/14 02:08:53;;;;;;;19.52;8.50;;;6.80;99.90;;;;;;4995041;28;20084;-77
2023/12/14 02:11:19;;;;;;;17.42;8.73;;;6.80;99.90;;;;;;4995971;28;20113;-77
2023/12/14 02:13:44;;;;;;;19.17;9.05;;;6.80;99.90;;;;;;4994555;28;20034;-77
2023/12/14 02:16:10;;;;;;;18.08;9.20;;;6.80;99.90;;;;;;4995538;28;20031;-77
2023/12/14 02:18:35;;;;;;;17.38;8.85;;;6.90;99.90;;;;;;4994894;28;20054;-77
2023/12/14 02:21:01;;;;;;;19.55;8.65;;;6.90;99.90;;;;;;4994776;28;20034;-77
2023/12/14 02:23:26;;;;;;;17.92;8.57;;;6.90;99.90;;;;;;4994635;28;20133;-78
2023/12/14 02:25:52;;;;;;;18.75;8.48;;;6.90;99.90;;;;;;4993013;28;20108;-78
2023/12/14 02:28:17;;;;;;;19.15;8.20;;;6.90;99.90;;;;;;4994649;28;20039;-75
2023/12/14 02:30:44;;;;;;;17.35;7.82;;;6.90;99.90;;;;;;4999059;28;20509;-76
2023/12/14 02:33:09;;;;;;;19.95;8.95;;;7.00;99.90;;;;;;5004964;28;20061;-78
2023/12/14 02:35:35;;;;;;;17.90;7.90;;;7.00;99.90;;;;;;5015485;28;20624;-76
2023/12/14 02:38:00;;;;;;;17.40;8.30;;;7.00;99.90;;;;;;4998630;28;20489;-76
2023/12/14 02:40:26;;;;;;;17.20;8.07;;;7.00;99.90;;;;;;4995336;28;20032;-78
2023/12/14 02:42:51;;;;;;;15.68;7.78;;;7.00;99.90;;;;;;4992372;28;20058;-76
2023/12/14 02:45:17;;;;;;;15.90;7.05;;;7.00;99.90;;;;;;5003369;28;20030;-78
2023/12/14 02:47:42;;;;;;;16.08;7.47;;;7.00;99.90;;;;;;4993403;28;20098;-76
2023/12/14 02:50:09;;;;;;;14.68;6.82;;;7.00;99.90;;;;;;5005237;28;20062;-76
2023/12/14 02:52:35;;;;;;;16.00;7.28;;;7.00;99.90;;;;;;5002168;28;20053;-76
2023/12/14 02:55:00;;;;;;;15.73;7.28;;;6.90;99.90;;;;;;4994217;28;20034;-76
2023/12/14 02:57:26;;;;;;;13.98;6.78;;;6.90;99.90;;;;;;4993785;28;20026;-77
2023/12/14 02:59:52;;;;;;;18.73;6.85;;;6.90;99.90;;;;;;4993706;28;20026;-76
2023/12/14 03:02:23;;;;;;;14.57;6.43;;;6.90;99.90;;;;;;4999626;28;20030;-76
2023/12/14 03:04:49;;;;;;;14.27;6.55;;;6.90;99.90;;;;;;5002498;28;20460;-77
2023/12/14 03:07:15;;;;;;;12.48;5.80;;;6.90;99.90;;;;;;5002427;28;20113;-76
2023/12/14 03:09:48;;;;;;;16.88;6.40;;;6.90;99.90;;;;;;4998665;28;20040;-77
2023/12/14 03:12:14;;;;;;;14.43;6.05;;;6.90;99.90;;;;;;5009420;28;20536;-75
2023/12/14 03:14:40;;;;;;;12.05;5.90;;;6.90;99.90;;;;;;4989493;28;20110;-75
2023/12/14 03:17:12;;;;;;;14.65;5.90;;;6.90;99.90;;;;;;4982954;28;20026;-78
2023/12/14 03:19:38;;;;;;;10.65;5.40;;;6.90;99.90;;;;;;4995871;28;20037;-77
2023/12/14 03:22:04;;;;;;;12.65;5.15;;;7.00;99.90;;;;;;4984582;28;20085;-78
2023/12/14 03:24:29;;;;;;;12.40;5.22;;;7.00;99.90;;;;;;5001597;28;20046;-77
2023/12/14 03:26:55;;;;;;;13.60;5.38;;;7.00;99.90;;;;;;4988733;28;20084;-76
2023/12/14 03:29:21;;;;;;;12.30;5.82;;;6.90;99.90;;;;;;4993594;28;20030;-76
2023/12/14 03:31:47;;;;;;;13.18;5.50;;;6.90;99.90;;;;;;4976575;28;20026;-75
2023/12/14 03:34:12;;;;;;;15.50;5.85;;;6.90;99.90;;;;;;4994318;28;20030;-76
2023/12/14 03:36:38;;;;;;;13.98;5.47;;;7.00;99.90;;;;;;5004504;28;20022;-76
2023/12/14 03:39:03;;;;;;;13.20;5.93;;;7.00;99.90;;;;;;5002675;28;20076;-76
2023/12/14 03:41:29;;;;;;;11.90;5.57;;;7.00;99.90;;;;;;5002087;28;20525;-78
2023/12/14 03:43:54;;;;;;;12.70;5.95;;;7.00;99.90;;;;;;5001026;28;20173;-76
2023/12/14 03:46:20;;;;;;;12.35;5.18;;;7.00;99.90;;;;;;5000016;28;20042;-76
2023/12/14 03:48:45;;;;;;;12.48;5.47;;;7.00;99.90;;;;;;5005457;28;20034;-76
2023/12/14 03:51:11;;;;;;;13.45;4.88;;;7.00;99.90;;;;;;5004155;28;20029;-76
2023/12/14 03:53:36;;;;;;;12.57;5.13;;;7.00;99.90;;;;;;5001755;28;20036;-75
2023/12/14 03:56:03;;;;;;;15.20;5.15;;;7.00;99.90;;;;;;5002053;28;20428;-74
2023/12/14 03:58:28;;;;;;;11.30;4.72;;;6.90;99.90;;;;;;4993139;28;20367;-75
2023/12/14 04:00:54;;;;;;;13.07;5.55;;;6.90;99.90;;;;;;4991246;28;20038;-76
2023/12/14 04:03:19;;;;;;;12.55;6.18;;;6.90;99.90;;;;;;4989683;28;20045;-76
2023/12/14 04:05:45;;;;;;;12.15;5.60;;;6.90;99.90;;;;;;4994223;28;20088;-77
2023/12/14 04:08:10;;;;;;;13.70;5.72;;;6.80;99.90;;;;;;4993523;28;20053;-76
2023/12/14 04:10:36;;;;;;;9.68;5.28;;;6.80;99.90;;;;;;5009026;28;20018;-76
2023/12/14 04:13:02;;;;;;;15.50;5.82;;;6.80;99.90;;;;;;4988895;28;20038;-77
2023/12/14 04:15:27;;;;;;;12.32;5.68;;;6.80;99.90;;;;;;4992992;28;20019;-77
2023/12/14 04:17:53;;;;;;;11.40;5.47;;;6.80;99.90;;;;;;4997333;28;20073;-75
2023/12/14 04:20:18;;;;;;;10.00;5.60;;;6.80;99.90;;;;;;4997716;28;20061;-78
2023/12/14 04:22:45;;;;;;;9.48;5.18;;;6.80;99.90;;;;;;5002711;28;20030;-76
2023/12/14 04:25:10;;;;;;;12.80;5.78;;;6.80;99.90;;;;;;5000865;28;20540;-75
2023/12/14 04:27:36;;;;;;;11.45;5.95;;;6.80;99.90;;;;;;4995201;28;20026;-78
2023/12/14 04:30:04;;;;;;;10.07;5.22;;;6.80;99.90;;;;;;5001327;28;20022;-77
2023/12/14 04:32:30;;;;;;;10.48;5.82;;;6.70;99.90;;;;;;4993428;28;20066;-75
2023/12/14 04:34:58;;;;;;;9.73;5.63;;;6.70;99.90;;;;;;5001173;28;20141;-76
2023/12/14 04:37:23;;;;;;;12.45;6.20;;;6.70;99.90;;;;;;5001627;28;20033;-76
2023/12/14 04:39:49;;;;;;;9.77;5.63;;;6.70;99.90;;;;;;5003652;28;20026;-76
2023/12/14 04:42:14;;;;;;;11.10;6.15;;;6.70;99.90;;;;;;5004422;28;20029;-76
2023/12/14 04:44:40;;;;;;;10.80;6.00;;;6.60;99.90;;;;;;5002082;28;20560;-76
2023/12/14 04:47:05;;;;;;;12.32;6.97;;;6.60;99.90;;;;;;4993427;28;20034;-76
2023/12/14 04:49:31;;;;;;;13.80;6.22;;;6.70;99.90;;;;;;4992526;28;20121;-76
2023/12/14 04:51:56;;;;;;;17.88;7.00;;;6.70;99.90;;;;;;4993177;28;20497;-75
2023/12/14 04:54:22;;;;;;;14.40;6.93;;;6.70;99.90;;;;;;4993298;28;20042;-76
2023/12/14 04:56:48;;;;;;;14.82;6.18;;;6.70;99.90;;;;;;5006647;28;20030;-76
2023/12/14 04:59:13;;;;;;;13.25;6.38;;;6.70;99.90;;;;;;5002544;28;20034;-75
2023/12/14 05:01:39;;;;;;;12.95;6.53;;;6.70;99.90;;;;;;5002280;28;20042;-75
2023/12/14 05:04:04;;;;;;;13.27;6.65;;;6.70;99.90;;;;;;4999399;28;20046;-76
2023/12/14 05:06:32;;;;;;;16.20;7.18;;;6.70;99.90;;;;;;4997953;28;20050;-76
2023/12/14 05:08:58;;;;;;;13.40;7.20;;;6.60;99.90;;;;;;4995888;28;20035;-75
2023/12/14 05:11:24;;;;;;;15.30;6.93;;;6.60;99.90;;;;;;4993135;28;20023;-75
2023/12/14 05:13:49;;;;;;;15.20;7.18;;;6.60;99.90;;;;;;4989165;28;20023;-76
2023/12/14 05:16:15;;;;;;;15.80;7.50;;;6.70;99.90;;;;;;4990864;28;20061;-76
2023/12/14 05:18:41;;;;;;;12.70;7.00;;;6.70;99.90;;;;;;4973450;28;20053;-76
2023/12/14 05:21:06;;;;;;;14.95;7.55;;;6.70;99.90;;;;;;4990491;28;20041;-76
2023/12/14 05:23:38;;;;;;;16.38;7.60;;;6.60;99.90;;;;;;4993336;28;20030;-76
2023/12/14 05:26:05;;;;;;;;;;;6.70;99.90;;;;;;4997009;28;20025;-76
2023/12/14 05:28:30;;;;;;;14.60;7.45;;;6.70;99.90;;;;;;4995126;28;19914;-79
2023/12/14 05:30:56;;;;;;;17.35;7.80;;;6.60;99.90;;;;;;4994164;28;20042;-76
2023/12/14 05:33:21;;;;;;;16.85;7.80;;;6.60;99.90;;;;;;4995764;28;20390;-76
2023/12/14 05:35:47;;;;;;;17.30;7.72;;;6.70;99.90;;;;;;4996821;28;20031;-76
2023/12/14 05:38:12;;;;;;;15.98;7.90;;;6.70;99.90;;;;;;4996880;28;20037;-76
2023/12/14 05:40:38;;;;;;;15.63;7.63;;;6.70;99.90;;;;;;4996680;28;20378;-76
2023/12/14 05:43:03;;;;;;;15.20;7.15;;;6.70;99.90;;;;;;4996069;28;20482;-76
2023/12/14 05:45:30;;;;;;;16.58;7.03;;;6.70;99.90;;;;;;4996728;28;20023;-77
2023/12/14 05:47:57;;;;;;;13.25;7.15;;;6.70;99.90;;;;;;4996787;28;20036;-77
2023/12/14 05:50:32;;;;;;;13.68;6.80;;;6.70;99.90;;;;;;4978019;28;20034;-77
2023/12/14 05:53:03;;;;;;;12.80;6.57;;;6.70;99.90;;;;;;4977548;28;20050;-77
2023/12/14 05:55:39;;;;;;;16.38;7.22;;;6.70;99.90;;;;;;4994954;28;20019;-77
2023/12/14 05:58:10;;;;;;;13.00;6.43;;;6.70;99.90;;;;;;4961802;28;20038;-76
2023/12/14 06:00:44;;;;;;;14.60;6.25;;;6.70;99.90;;;;;;4996590;28;20030;-78
2023/12/14 06:03:18;;;;;;;11.95;6.38;;;6.70;99.90;;;;;;4996460;28;20089;-77
2023/12/14 06:05:48;;;;;;;11.82;7.18;;;6.70;99.90;;;;;;4995827;28;20034;-77
2023/12/14 06:08:23;;;;;;;15.65;6.97;;;6.70;99.90;;;;;;4961587;28;20040;-77
2023/12/14 06:10:55;;;;;;;15.90;7.85;;;6.70;99.90;;;;;;4978238;28;20026;-77
2023/12/14 06:13:21;;;;;;;15.63;8.20;;;6.70;99.90;;;;;;4977996;28;20451;-75
2023/12/14 06:15:49;;;;;;;13.90;7.05;;;6.70;99.90;;;;;;4978121;28;20449;-76
2023/12/14 06:18:15;;;;;;;16.40;7.30;;;6.70;99.90;;;;;;4978681;28;20105;-76
2023/12/14 06:20:40;;;;;;;12.90;6.70;;;6.70;99.90;;;;;;4978092;28;20023;-76
2023/12/14 06:23:06;;;;;;;12.13;6.28;;;6.60;99.90;;;;;;4995540;28;20043;-77
2023/12/14 06:25:32;;;;;;;14.00;6.18;;;6.60;99.90;;;;;;4995081;28;20119;-74
2023/12/14 06:27:57;;;;;;;10.23;6.15;;;6.60;99.90;;;;;;4995913;28;20029;-78
2023/12/14 06:30:23;;;;;;;12.43;5.65;;;6.50;99.90;;;;;;4995869;28;20031;-77
2023/12/14 06:32:49;;;;;;;10.60;5.90;;;6.50;99.90;;;;;;4995516;28;20022;-76
2023/12/14 06:35:15;;;;;;;15.00;6.35;;;6.50;99.90;;;;;;4994228;28;20073;-76
2023/12/14 06:37:42;;;;;;;12.10;6.10;;;6.40;99.90;;;;;;4995620;28;20057;-76
2023/12/14 06:40:09;;;;;;;12.98;6.38;;;6.40;99.90;;;;;;4995619;28;20544;-76
2023/12/14 06:42:34;;;;;;;10.30;6.13;;;6.30;99.90;;;;;;4993045;28;20083;-76
2023/12/14 06:45:02;;;;;;;13.63;6.53;;;6.20;99.90;;;;;;4995748;28;20467;-76
2023/12/14 06:47:28;;;;;;;14.85;7.10;;;6.20;99.90;;;;;;4994313;28;20429;-76
2023/12/14 06:49:54;;;;;;;11.73;6.25;;;6.10;99.90;;;;;;4995236;28;20121;-76
2023/12/14 06:52:19;;;;;;;16.90;7.22;;;6.10;99.90;;;;;;4993607;28;20034;-76
2023/12/14 06:54:45;;;;;;;12.18;6.90;;;6.00;99.90;;;;;;4994905;28;20062;-76
2023/12/14 06:57:10;;;;;;;14.70;7.57;;;5.90;99.90;;;;;;4994955;28;20029;-76
2023/12/14 06:59:36;;;;;;;14.93;7.53;;;5.90;99.90;;;;;;4995156;28;20022;-76
2023/12/14 07:02:01;;;;;;;17.75;8.95;;;5.90;99.90;;;;;;4994866;28;20530;-77
2023/12/14 07:04:27;;;;;;;16.95;8.95;;;5.90;99.90;;;;;;4994971;28;20046;-78
2023/12/14 07:06:53;;;;;;;15.63;8.80;;;5.80;99.90;;;;;;4993903;28;20113;-75
2023/12/14 07:09:19;;;;;;;19.15;10.20;;;5.80;99.90;;;;;;4994983;28;20026;-77
2023/12/14 07:11:44;;;;;;;20.95;9.55;;;5.70;99.90;;;;;;4995033;28;20240;-77
2023/12/14 07:14:10;;;;;;;19.92;10.18;;;5.70;99.90;;;;;;4995133;28;20031;-75
2023/12/14 07:16:36;;;;;;;19.75;10.75;;;5.70;99.90;;;;;;4994792;28;20105;-76
2023/12/14 07:19:01;;;;;;;18.20;9.70;;;5.70;99.90;;;;;;4995120;28;20105;-77
2023/12/14 07:21:27;;;;;;;18.52;9.63;;;5.70;99.90;;;;;;4994221;28;20478;-76
2023/12/14 07:23:53;;;;;;;19.48;10.27;;;5.80;99.90;;;;;;4976563;28;20552;-75
2023/12/14 07:26:18;;;;;;;16.83;10.30;;;5.80;99.90;;;;;;4994486;28;20059;-76
2023/12/14 07:28:44;;;;;;;18.20;10.63;;;5.90;99.90;;;;;;4994124;28;20071;-76
2023/12/14 07:31:09;;;;;;;19.98;10.15;;;6.00;99.90;;;;;;4993645;28;20018;-77
2023/12/14 07:33:35;;;;;;;17.48;9.77;;;6.10;99.90;;;;;;4994728;28;20466;-76
2023/12/14 07:36:01;;;;;;;19.50;10.20;;;6.10;99.90;;;;;;4994633;28;20054;-76
2023/12/14 07:38:26;;;;;;;18.10;9.57;;;6.30;99.90;;;;;;4993592;28;20038;-76
2023/12/14 07:40:52;;;;;;;19.48;9.80;;;6.30;99.90;;;;;;4994321;28;20033;-77
2023/12/14 07:43:18;;;;;;;22.00;9.98;;;6.40;99.90;;;;;;4993272;28;20058;-76
2023/12/14 07:45:44;;;;;;;101.55;20.17;;;6.40;99.90;;;;;;4993333;28;20060;-75
2023/12/14 07:48:09;;;;;;;20.77;10.40;;;6.40;99.90;;;;;;4993537;28;20069;-76
2023/12/14 07:50:35;;;;;;;20.85;10.57;;;6.40;99.90;;;;;;4993125;28;20470;-76
2023/12/14 07:53:00;;;;;;;19.88;10.20;;;6.30;99.90;;;;;;4993572;28;20089;-76
2023/12/14 07:55:26;;;;;;;20.33;10.32;;;6.20;99.90;;;;;;4991409;28;20034;-75
2023/12/14 07:57:52;;;;;;;19.98;11.38;;;6.20;99.90;;;;;;4992639;28;20045;-75
2023/12/14 08:00:18;;;;;;;22.13;10.68;;;6.20;99.90;;;;;;4993440;28;20026;-76
2023/12/14 08:02:43;;;;;;;21.10;11.05;;;6.10;99.90;;;;;;4993259;28;20474;-76
2023/12/14 08:05:09;;;;;;;21.90;11.40;;;6.00;99.90;;;;;;4976509;28;20041;-76
2023/12/14 08:07:35;;;;;;;20.45;10.98;;;6.00;99.90;;;;;;4992584;28;20101;-75
2023/12/14 08:10:00;;;;;;;20.65;11.63;;;5.90;99.90;;;;;;4994149;28;20034;-77
2023/12/14 08:12:26;;;;;;;22.27;11.80;;;5.90;99.90;;;;;;4993416;28;20551;-76
2023/12/14 08:14:52;;;;;;;21.25;12.02;;;5.90;99.90;;;;;;4992824;28;20030;-76
2023/12/14 08:17:17;;;;;;;18.85;11.68;;;5.90;99.90;;;;;;4992641;28;20746;-76
2023/12/14 08:19:43;;;;;;;19.08;11.45;;;5.90;99.90;;;;;;4992051;28;20088;-76
2023/12/14 08:22:12;;;;;;;20.05;11.10;;;5.80;99.90;;;;;;4991451;28;20505;-77
2023/12/14 08:24:39;;;;;;;21.38;11.30;;;5.80;99.90;;;;;;4991196;28;20141;-77
2023/12/14 08:27:05;;;;;;;22.08;12.50;;;5.80;99.90;;;;;;4991793;28;20121;-76
2023/12/14 08:29:30;;;;;;;27.08;16.02;;;5.90;99.90;;;;;;4991055;28;20110;-76
2023/12/14 08:31:57;;;;;;;23.13;11.52;;;5.90;99.90;;;;;;4992586;28;20045;-76
2023/12/14 08:34:26;;;;;;;20.00;10.82;;;6.00;99.90;;;;;;4993937;28;20109;-76
2023/12/14 08:36:51;;;;;;;20.88;10.50;;;6.00;99.90;;;;;;4992870;28;20118;-76
2023/12/14 08:39:17;;;;;;;20.83;11.55;;;6.10;99.90;;;;;;4993402;28;20480;-76
2023/12/14 08:41:44;;;;;;;20.45;11.07;;;6.20;99.90;;;;;;4993567;28;20549;-77
2023/12/14 08:44:10;;;;;;;20.55;12.38;;;6.30;99.90;;;;;;4992629;28;20375;-76
2023/12/14 08:46:44;;;;;;;22.58;11.52;;;6.50;99.90;;;;;;4990227;28;20474;-76
2023/12/14 08:49:11;;;;;;;24.45;12.13;;;6.60;99.90;;;;;;4993316;28;20121;-77
2023/12/14 08:51:38;;;;;;;15.70;8.95;;;6.80;99.90;;;;;;4993331;28;20032;-76
2023/12/14 08:54:04;;;;;;;19.60;9.80;;;7.00;99.90;;;;;;4991258;28;20026;-76
2023/12/14 08:56:29;;;;;;;19.02;8.27;;;7.20;99.90;;;;;;4991550;28;20027;-77
2023/12/14 08:58:55;;;;;;;18.17;8.45;;;7.40;99.90;;;;;;4992359;28;20042;-76
2023/12/14 09:01:22;;;;;;;15.85;8.18;;;7.60;99.90;;;;;;4991166;28;20061;-77
2023/12/14 09:03:49;;;;;;;15.43;8.00;;;7.80;99.90;;;;;;4989570;28;20038;-76
2023/12/14 09:06:15;;;;;;;16.67;8.27;;;7.90;99.90;;;;;;4992919;28;20154;-77
2023/12/14 09:08:41;;;;;;;15.07;7.75;;;7.90;99.90;;;;;;4991481;28;20076;-77
2023/12/14 09:11:07;;;;;;;14.60;7.03;;;8.00;99.90;;;;;;4992073;28;20041;-76
2023/12/14 09:13:32;;;;;;;15.80;7.78;;;8.10;99.90;;;;;;4975417;28;20162;-78
2023/12/14 09:15:58;;;;;;;15.68;7.28;;;8.10;99.90;;;;;;4993082;28;20030;-76
2023/12/14 09:18:24;;;;;;;16.30;8.05;;;8.20;99.90;;;;;;4992807;28;20054;-76
2023/12/14 09:20:50;;;;;;;19.25;7.88;;;8.20;99.90;;;;;;4992257;28;20026;-77
2023/12/14 09:23:16;;;;;;;15.90;8.30;;;8.20;99.90;;;;;;4992953;28;20378;-76
2023/12/14 09:25:42;;;;;;;28.98;12.48;;;8.20;99.90;;;;;;4992007;28;20053;-77
2023/12/14 09:28:07;;;;;;;19.85;9.60;;;8.20;99.90;;;;;;4992696;28;20089;-76
2023/12/14 09:30:33;;;;;;;17.13;8.32;;;8.20;99.90;;;;;;4990596;28;20022;-77
2023/12/14 09:32:59;;;;;;;17.02;8.38;;;8.20;99.90;;;;;;4992411;28;20082;-77
2023/12/14 09:35:24;;;;;;;17.20;8.38;;;8.30;99.90;;;;;;4992515;28;20026;-76
2023/12/14 09:37:50;;;;;;;18.50;9.45;;;8.30;99.90;;;;;;4991801;28;20033;-76
2023/12/14 09:40:16;;;;;;;18.98;9.10;;;8.40;99.90;;;;;;4992406;28;20382;-77
2023/12/14 09:42:42;;;;;;;15.85;8.60;;;8.40;99.90;;;;;;4992751;28;20029;-77
2023/12/14 09:45:09;;;;;;;15.52;8.32;;;8.40;99.90;;;;;;4992205;28;20479;-77
2023/12/14 09:47:36;;;;;;;22.90;8.60;;;8.40;99.90;;;;;;4992607;28;20042;-76
2023/12/14 09:50:03;;;;;;;16.35;7.63;;;8.50;99.90;;;;;;4991532;28;20423;-76
2023/12/14 09:52:29;;;;;;;14.90;6.85;;;8.50;99.90;;;;;;4992040;28;20379;-77
2023/12/14 09:54:54;;;;;;;15.02;7.10;;;8.60;99.90;;;;;;4988258;28;20041;-77
2023/12/14 09:57:20;;;;;;;14.38;7.57;;;8.60;99.90;;;;;;4991465;28;20058;-77
2023/12/14 09:59:53;;;;;;;15.52;7.97;;;8.70;99.90;;;;;;4991664;28;20035;-78
2023/12/14 10:02:19;;;;;;;16.05;7.53;;;8.70;99.90;;;;;;4991995;28;20023;-77
2023/12/14 10:04:46;;;;;;;17.80;7.63;;;8.90;99.90;;;;;;4991770;28;20497;-78
2023/12/14 10:07:12;;;;;;;15.73;8.40;;;9.00;99.90;;;;;;4992249;28;20030;-74
2023/12/14 10:09:37;;;;;;;17.23;8.13;;;9.10;99.90;;;;;;4992358;28;20390;-77
2023/12/14 10:12:05;;;;;;;16.13;8.13;;;9.20;99.90;;;;;;4994611;28;20550;-78
2023/12/14 10:14:33;;;;;;;16.77;7.30;;;9.20;99.90;;;;;;4995395;28;20034;-78
2023/12/14 10:16:58;;;;;;;15.05;7.60;;;9.20;99.90;;;;;;4996006;28;20030;-77
2023/12/14 10:19:24;;;;;;;14.60;8.25;;;9.20;99.90;;;;;;4994264;28;20046;-77
2023/12/14 10:21:50;;;;;;;16.85;7.78;;;9.30;99.90;;;;;;4994577;28;20023;-78
2023/12/14 10:24:17;;;;;;;13.65;7.55;;;9.40;99.90;;;;;;4995474;28;20046;-77
2023/12/14 10:26:46;;;;;;;14.52;7.45;;;9.50;99.90;;;;;;4995838;28;20189;-78
2023/12/14 10:29:12;;;;;;;18.52;7.85;;;9.60;99.90;;;;;;4995967;28;20029;-76
2023/12/14 10:31:37;;;;;;;16.38;8.27;;;9.70;99.90;;;;;;4995160;28;20034;-76
2023/12/14 10:34:06;;;;;;;16.25;7.22;;;9.90;99.90;;;;;;4995669;28;20033;-75
2023/12/14 10:36:32;;;;;;;13.48;7.05;;;10.10;99.90;;;;;;4978154;28;20394;-76
2023/12/14 10:38:59;;;;;;;16.63;7.30;;;10.50;99.90;;;;;;4995478;28;20030;-76
2023/12/14 10:41:26;;;;;;;12.07;6.50;;;10.70;99.90;;;;;;4995229;28;20117;-75
2023/12/14 10:43:54;;;;;;;15.73;7.15;;;10.80;99.90;;;;;;4995320;28;20038;-75
2023/12/14 10:46:20;;;;;;;10.90;6.25;;;11.00;99.90;;;;;;4995183;28;20030;-75
2023/12/14 10:48:49;;;;;;;13.35;7.75;;;11.00;99.90;;;;;;4977021;28;20038;-75
2023/12/14 10:51:17;;;;;;;15.07;6.93;;;10.90;99.90;;;;;;4994927;28;20026;-76
2023/12/14 10:53:47;;;;;;;14.05;7.28;;;10.70;99.90;;;;;;4995255;28;20031;-76
2023/12/14 10:56:13;;;;;;;16.52;7.90;;;10.50;99.90;;;;;;4995416;28;20466;-76
2023/12/14 10:58:53;;;;;;;13.88;7.72;;;10.40;99.90;;;;;;4995324;28;20061;-77
2023/12/14 11:01:20;;;;;;;15.55;7.38;;;10.20;99.90;;;;;;4994970;28;20504;-77
2023/12/14 11:03:48;;;;;;;17.58;7.38;;;10.10;99.90;;;;;;4994119;28;20050;-77
2023/12/14 11:06:28;;;;;;;14.35;7.60;;;10.00;99.90;;;;;;4995201;28;20026;-76
2023/12/14 11:09:06;;;;;;;15.00;6.95;;;10.10;99.90;;;;;;4976819;28;20061;-76
2023/12/14 11:11:42;;;;;;;14.70;6.28;;;10.50;99.90;;;;;;4994952;28;20033;-77
2023/12/14 11:14:10;;;;;;;14.35;7.00;;;10.80;99.90;;;;;;4994507;28;20489;-77
2023/12/14 11:16:37;;;;;;;15.32;7.25;;;11.00;99.90;;;;;;4994859;28;20037;-77
2023/12/14 11:19:21;;;;;;;14.40;7.22;;;11.10;99.90;;;;;;4994663;28;20050;-77
2023/12/14 11:22:05;;;;;;;15.10;7.70;;;11.10;99.90;;;;;;4989049;28;20053;-76
2023/12/14 11:24:31;;;;;;;14.40;6.93;;;11.00;99.90;;;;;;4994261;28;20050;-77
2023/12/14 11:26:56;;;;;;;14.90;7.18;;;10.90;99.90;;;;;;4995009;28;20105;-76
2023/12/14 11:29:22;;;;;;;16.73;7.82;;;10.60;99.90;;;;;;4994245;28;20022;-76
2023/12/14 11:31:48;;;;;;;13.70;7.18;;;10.50;99.90;;;;;;4994833;28;20034;-76
2023/12/14 11:34:17;;;;;;;13.18;7.10;;;10.30;99.90;;;;;;4992696;28;20085;-76
2023/12/14 11:36:43;;;;;;;14.52;6.78;;;10.10;99.90;;;;;;4993431;28;20061;-76
2023/12/14 11:39:09;;;;;;;14.40;7.60;;;9.90;99.90;;;;;;4994086;28;20054;-77
2023/12/14 11:41:36;;;;;;;16.90;7.85;;;9.80;99.90;;;;;;4994295;28;20488;-77
2023/12/14 11:44:01;;;;;;;13.60;7.80;;;9.80;99.90;;;;;;4975718;28;20509;-77
2023/12/14 11:46:29;;;;;;;14.73;8.18;;;9.80;99.90;;;;;;4976639;28;20026;-77
2023/12/14 11:48:56;;;;;;;13.35;6.97;;;9.70;99.90;;;;;;4993766;28;20112;-77
2023/12/14 11:51:23;;;;;;;15.43;7.40;;;9.70;99.90;;;;;;4994295;28;20030;-77
2023/12/14 11:53:49;;;;;;;15.45;7.93;;;9.50;99.90;;;;;;4993684;28;20029;-77
2023/12/14 11:56:18;;;;;;;14.05;7.60;;;9.40;99.90;;;;;;4994754;28;20026;-77
2023/12/14 11:58:47;;;;;;;15.52;8.07;;;9.30;99.90;;;;;;4993153;28;20053;-77
2023/12/14 12:01:24;;;;;;;13.95;7.47;;;9.30;99.90;;;;;;4994152;28;20030;-78
2023/12/14 12:03:50;;;;;;;13.65;7.38;;;9.40;99.90;;;;;;4993833;28;20039;-76
2023/12/14 12:06:30;;;;;;;16.75;7.53;;;9.30;99.90;;;;;;4993321;28;20048;-76
2023/12/14 12:08:56;;;;;;;16.48;7.63;;;9.30;99.90;;;;;;4974354;28;20513;-77
2023/12/14 12:11:22;;;;;;;12.05;6.70;;;9.20;99.90;;;;;;4993502;28;20034;-76
2023/12/14 12:13:55;;;;;;;14.48;7.80;;;9.00;99.90;;;;;;4993899;28;20026;-77
2023/12/14 12:16:22;;;;;;;12.55;6.40;;;9.00;99.90;;;;;;4993246;28;20021;-77
2023/12/14 12:18:48;;;;;;;11.90;6.65;;;9.00;99.90;;;;;;4990412;28;20050;-77
2023/12/14 12:21:13;;;;;;;11.82;6.68;;;8.90;99.90;;;;;;4992731;28;20081;-76
2023/12/14 12:23:41;;;;;;;16.40;7.13;;;8.90;99.90;;;;;;4993321;28;20034;-76
2023/12/14 12:26:07;;;;;;;15.02;8.23;;;8.90;99.90;;;;;;4991786;28;20038;-76
2023/12/14 12:28:32;;;;;;;14.55;8.02;;;8.90;99.90;;;;;;4993429;28;20038;-77
2023/12/14 12:30:59;;;;;;;13.18;6.70;;;8.90;99.90;;;;;;4993277;28;20034;-77
2023/12/14 12:33:25;;;;;;;16.10;7.18;;;8.80;99.90;;;;;;4992945;28;20088;-77
2023/12/14 12:35:51;;;;;;;16.25;7.30;;;8.70;99.90;;;;;;4992448;28;20026;-76
2023/12/14 12:38:18;;;;;;;13.65;7.65;;;8.60;99.90;;;;;;4993383;28;20435;-77
2023/12/14 12:40:44;;;;;;;18.60;8.60;;;8.60;99.90;;;;;;4993371;28;20037;-77